createdAt,value
2018-02-19T00:00:12.599Z,-0.60
2018-02-19T00:02:40.116Z,-0.60
2018-02-19T00:05:07.672Z,-0.70
2018-02-19T00:07:35.192Z,-0.70
2018-02-19T00:10:02.770Z,-0.90
2018-02-19T00:12:30.293Z,-0.90
2018-02-19T00:14:57.848Z,-1.00
2018-02-19T00:17:25.372Z,-1.00
2018-02-19T00:19:53.696Z,-1.00
2018-02-19T00:22:21.216Z,-1.00
2018-02-19T00:24:48.809Z,-1.00
2018-02-19T00:27:17.105Z,-0.90
2018-02-19T00:29:44.620Z,-1.00
2018-02-19T00:32:12.188Z,-0.90
2018-02-19T00:34:39.709Z,-0.80
2018-02-19T00:37:08.032Z,-0.70
2018-02-19T00:39:35.591Z,-0.70
2018-02-19T00:42:03.118Z,-0.70
2018-02-19T00:44:30.670Z,-0.70
2018-02-19T00:46:58.184Z,-0.60
2018-02-19T00:49:25.744Z,-0.60
2018-02-19T00:51:53.268Z,-0.60
2018-02-19T00:54:20.816Z,-0.60
2018-02-19T00:56:49.103Z,-0.60
2018-02-19T00:59:17.422Z,-0.70
2018-02-19T01:01:44.949Z,-0.70
2018-02-19T01:04:13.280Z,-1.00
2018-02-19T01:06:40.815Z,-1.00
2018-02-19T01:09:09.144Z,-1.10
2018-02-19T01:11:36.671Z,-1.10
2018-02-19T01:14:04.228Z,-1.00
2018-02-19T01:16:31.764Z,-1.10
2018-02-19T01:18:59.335Z,-1.10
2018-02-19T01:21:26.866Z,-1.20
2018-02-19T01:23:54.418Z,-1.30
2018-02-19T01:26:21.936Z,-1.40
2018-02-19T01:28:49.487Z,-1.40
2018-02-19T01:31:17.779Z,-1.60
2018-02-19T01:33:46.091Z,-1.60
2018-02-19T01:36:13.607Z,-1.70
2018-02-19T01:38:41.163Z,-1.70
2018-02-19T01:41:08.688Z,-1.80
2018-02-19T01:43:36.244Z,-1.80
2018-02-19T01:46:03.760Z,-1.80
2018-02-19T01:48:31.304Z,-1.80
2018-02-19T01:50:58.828Z,-1.80
2018-02-19T01:53:26.380Z,-1.80
2018-02-19T01:55:53.895Z,-1.80
2018-02-19T01:58:21.440Z,-1.70
2018-02-19T02:00:48.969Z,-1.70
2018-02-19T02:03:16.536Z,-1.70
2018-02-19T02:08:35.547Z,-1.70
2018-02-19T02:11:03.860Z,-1.70
2018-02-19T02:13:31.380Z,-1.80
2018-02-19T02:15:58.931Z,-1.70
2018-02-19T02:18:27.216Z,-1.70
2018-02-19T02:20:54.763Z,-1.80
2018-02-19T02:23:22.289Z,-1.70
2018-02-19T02:25:49.856Z,-1.70
2018-02-19T02:28:17.380Z,-1.70
2018-02-19T02:30:44.899Z,-1.70
2018-02-19T02:33:12.447Z,-1.70
2018-02-19T02:35:39.963Z,-1.70
2018-02-19T02:38:08.252Z,-1.80
2018-02-19T02:40:36.575Z,-1.80
2018-02-19T02:43:04.090Z,-1.80
2018-02-19T02:45:32.425Z,-1.90
2018-02-19T02:47:59.944Z,-1.90
2018-02-19T02:50:27.499Z,-1.90
2018-02-19T02:52:55.016Z,-1.90
2018-02-19T02:55:23.336Z,-1.80
2018-02-19T02:57:50.856Z,-1.80
2018-02-19T03:00:18.402Z,-1.80
2018-02-19T03:02:45.916Z,-1.80
2018-02-19T03:05:13.478Z,-1.80
2018-02-19T03:07:41.824Z,-1.80
2018-02-19T03:10:09.340Z,-1.80
2018-02-19T03:12:36.856Z,-1.80
2018-02-19T03:15:04.413Z,-1.80
2018-02-19T03:17:32.704Z,-1.70
2018-02-19T03:20:01.021Z,-1.70
2018-02-19T03:22:28.539Z,-1.70
2018-02-19T03:24:56.095Z,-1.80
2018-02-19T03:27:23.611Z,-1.70
2018-02-19T03:29:51.919Z,-1.70
2018-02-19T03:32:19.442Z,-1.70
2018-02-19T03:34:47.001Z,-1.70
2018-02-19T03:37:14.552Z,-1.60
2018-02-19T03:39:42.100Z,-1.60
2018-02-19T03:42:09.616Z,-1.60
2018-02-19T03:44:37.164Z,-1.50
2018-02-19T03:47:04.681Z,-1.50
2018-02-19T03:49:32.228Z,-1.50
2018-02-19T03:52:00.512Z,-1.40
2018-02-19T03:54:28.057Z,-1.40
2018-02-19T03:56:55.579Z,-1.40
2018-02-19T03:59:23.128Z,-1.40
2018-02-19T04:01:50.648Z,-1.30
2018-02-19T04:04:18.972Z,-1.40
2018-02-19T04:06:46.481Z,-1.40
2018-02-19T04:09:14.041Z,-1.40
2018-02-19T04:11:41.589Z,-1.40
2018-02-19T04:14:09.111Z,-1.40
2018-02-19T04:16:36.651Z,-1.30
2018-02-19T04:19:04.168Z,-1.30
2018-02-19T04:21:32.811Z,-1.40
2018-02-19T04:24:00.327Z,-1.40
2018-02-19T04:26:27.843Z,-1.40
2018-02-19T04:28:55.396Z,-1.50
2018-02-19T04:31:22.919Z,-1.40
2018-02-19T04:33:50.471Z,-1.40
2018-02-19T04:36:17.990Z,-1.30
2018-02-19T04:38:46.309Z,-1.30
2018-02-19T04:41:13.825Z,-1.30
2018-02-19T04:43:41.346Z,-1.30
2018-02-19T04:46:11.761Z,-1.30
2018-02-19T04:48:39.276Z,-1.30
2018-02-19T04:51:06.821Z,-1.30
2018-02-19T04:53:35.099Z,-1.40
2018-02-19T04:56:03.412Z,-1.50
2018-02-19T04:58:30.930Z,-1.50
2018-02-19T05:00:58.477Z,-1.60
2018-02-19T05:03:26.034Z,-1.70
2018-02-19T05:05:53.551Z,-1.70
2018-02-19T05:08:21.111Z,-1.70
2018-02-19T05:10:48.659Z,-1.80
2018-02-19T05:13:16.247Z,-1.70
2018-02-19T05:15:43.766Z,-1.70
2018-02-19T05:18:12.051Z,-1.90
2018-02-19T05:20:39.635Z,-1.90
2018-02-19T05:23:07.922Z,-1.80
2018-02-19T05:25:35.468Z,-1.80
2018-02-19T05:28:02.991Z,-1.80
2018-02-19T05:30:30.562Z,-1.90
2018-02-19T05:32:58.108Z,-1.90
2018-02-19T05:35:26.396Z,-1.90
2018-02-19T05:37:54.738Z,-1.80
2018-02-19T05:40:22.256Z,-1.90
2018-02-19T05:42:50.605Z,-1.60
2018-02-19T05:45:18.145Z,-1.60
2018-02-19T05:47:45.679Z,-1.60
2018-02-19T05:50:13.251Z,-1.50
2018-02-19T05:52:40.763Z,-1.40
2018-02-19T05:55:08.316Z,-1.30
2018-02-19T05:57:36.639Z,-1.30
2018-02-19T06:00:04.163Z,-1.30
2018-02-19T06:02:31.718Z,-1.30
2018-02-19T06:04:59.242Z,-1.30
2018-02-19T06:07:26.791Z,-1.30
2018-02-19T06:09:54.312Z,-1.30
2018-02-19T06:12:32.258Z,-1.30
2018-02-19T06:14:59.776Z,-1.20
2018-02-19T06:17:27.340Z,-1.10
2018-02-19T06:19:54.868Z,-1.10
2018-02-19T06:22:22.892Z,-1.10
2018-02-19T06:24:50.440Z,-1.10
2018-02-19T06:27:18.007Z,-1.10
2018-02-19T06:29:45.564Z,-1.10
2018-02-19T06:32:13.092Z,-1.20
2018-02-19T06:34:40.658Z,-1.10
2018-02-19T06:37:08.179Z,-1.10
2018-02-19T06:39:35.732Z,-1.00
2018-02-19T06:42:03.256Z,-1.10
2018-02-19T06:44:30.792Z,-1.10
2018-02-19T06:46:58.312Z,-1.10
2018-02-19T06:49:25.863Z,-1.20
2018-02-19T06:51:54.148Z,-1.20
2018-02-19T06:54:21.742Z,-1.20
2018-02-19T06:56:50.028Z,-1.20
2018-02-19T06:59:18.365Z,-1.20
2018-02-19T07:01:45.888Z,-1.20
2018-02-19T07:04:14.215Z,-1.00
2018-02-19T07:06:41.735Z,-1.00
2018-02-19T07:09:09.275Z,-0.90
2018-02-19T07:11:36.823Z,-0.80
2018-02-19T07:14:04.348Z,-0.60
2018-02-19T07:16:31.900Z,-0.50
2018-02-19T07:18:59.415Z,-0.40
2018-02-19T07:21:27.739Z,0.00
2018-02-19T07:23:55.255Z,-0.10
2018-02-19T07:26:22.797Z,0.00
2018-02-19T07:28:50.345Z,0.00
2018-02-19T07:31:17.872Z,0.00
2018-02-19T07:33:45.418Z,0.10
2018-02-19T07:36:12.932Z,0.30
2018-02-19T07:38:41.240Z,0.60
2018-02-19T07:41:08.760Z,0.50
2018-02-19T07:43:36.299Z,0.70
2018-02-19T07:46:03.808Z,0.70
2018-02-19T07:48:31.356Z,0.80
2018-02-19T07:50:58.875Z,1.00
2018-02-19T07:53:27.184Z,1.20
2018-02-19T07:55:54.707Z,1.20
2018-02-19T07:58:22.260Z,1.40
2018-02-19T08:00:49.779Z,1.50
2018-02-19T08:03:18.084Z,1.70
2018-02-19T08:05:46.359Z,1.80
2018-02-19T08:08:13.902Z,1.80
2018-02-19T08:10:41.452Z,1.80
2018-02-19T08:13:08.970Z,1.90
2018-02-19T08:15:36.516Z,2.10
2018-02-19T08:18:04.043Z,2.20
2018-02-19T08:20:31.593Z,2.30
2018-02-19T08:22:59.101Z,2.40
2018-02-19T08:25:26.648Z,2.50
2018-02-19T08:27:54.924Z,2.90
2018-02-19T08:30:23.249Z,3.00
2018-02-19T08:32:50.772Z,2.90
2018-02-19T08:35:18.324Z,3.10
2018-02-19T08:37:45.867Z,3.20
2018-02-19T08:40:13.432Z,3.40
2018-02-19T08:42:40.953Z,3.60
2018-02-19T08:45:08.459Z,3.70
2018-02-19T08:47:36.772Z,4.10
2018-02-19T08:50:04.284Z,4.10
2018-02-19T08:52:31.836Z,4.40
2018-02-19T08:54:59.347Z,4.90
2018-02-19T08:57:27.667Z,5.90
2018-02-19T08:59:55.184Z,5.80
2018-02-19T09:02:22.731Z,5.90
2018-02-19T09:04:50.246Z,6.30
2018-02-19T09:07:17.796Z,6.40
2018-02-19T09:09:45.308Z,6.10
2018-02-19T09:12:12.897Z,5.80
2018-02-19T09:14:40.412Z,5.30
2018-02-19T09:17:08.016Z,5.10
2018-02-19T09:19:36.333Z,5.20
2018-02-19T09:22:03.844Z,5.20
2018-02-19T09:24:31.418Z,5.60
2018-02-19T09:26:58.927Z,6.10
2018-02-19T09:29:27.244Z,6.40
2018-02-19T09:31:54.764Z,6.40
2018-02-19T09:34:22.299Z,6.30
2018-02-19T09:36:49.820Z,5.90
2018-02-19T09:39:18.132Z,6.20
2018-02-19T09:41:45.691Z,6.20
2018-02-19T09:44:13.220Z,6.30
2018-02-19T09:46:40.737Z,6.50
2018-02-19T09:49:09.061Z,6.70
2018-02-19T09:51:36.568Z,6.60
2018-02-19T09:54:04.137Z,6.60
2018-02-19T09:56:31.675Z,6.90
2018-02-19T09:58:59.204Z,7.00
2018-02-19T10:01:26.752Z,6.70
2018-02-19T10:03:54.263Z,6.40
2018-02-19T10:06:22.579Z,6.30
2018-02-19T10:08:50.108Z,6.30
2018-02-19T10:11:17.663Z,6.00
2018-02-19T10:13:45.180Z,6.20
2018-02-19T10:16:12.757Z,6.10
2018-02-19T10:18:40.297Z,6.10
2018-02-19T10:21:07.844Z,6.30
2018-02-19T10:23:35.365Z,6.60
2018-02-19T10:26:02.918Z,6.90
2018-02-19T10:28:30.463Z,7.50
2018-02-19T10:30:58.000Z,7.70
2018-02-19T10:33:25.509Z,8.00
2018-02-19T10:35:53.064Z,8.50
2018-02-19T10:38:20.587Z,8.90
2018-02-19T10:40:48.912Z,8.70
2018-02-19T10:43:16.438Z,8.60
2018-02-19T10:45:44.768Z,8.20
2018-02-19T10:48:12.300Z,8.20
2018-02-19T10:50:40.611Z,8.20
2018-02-19T10:53:08.128Z,8.20
2018-02-19T10:55:35.689Z,8.60
2018-02-19T10:58:03.208Z,9.50
2018-02-19T11:00:36.508Z,9.80
2018-02-19T11:03:04.026Z,9.70
2018-02-19T11:05:31.594Z,9.90
2018-02-19T11:07:59.127Z,10.00
2018-02-19T11:10:26.694Z,10.50
2018-02-19T11:12:54.215Z,10.70
2018-02-19T11:15:21.772Z,10.40
2018-02-19T11:17:49.296Z,9.40
2018-02-19T11:20:16.880Z,9.00
2018-02-19T11:22:44.418Z,8.70
2018-02-19T11:25:11.984Z,8.00
2018-02-19T11:27:39.516Z,7.80
2018-02-19T11:30:07.824Z,7.70
2018-02-19T11:32:35.344Z,7.70
2018-02-19T11:35:02.907Z,8.00
2018-02-19T11:37:30.465Z,8.10
2018-02-19T11:39:58.012Z,8.10
2018-02-19T11:42:25.524Z,8.10
2018-02-19T11:44:53.081Z,8.10
2018-02-19T11:47:20.637Z,7.90
2018-02-19T11:49:48.219Z,7.60
2018-02-19T11:52:15.756Z,7.40
2018-02-19T11:54:44.092Z,7.50
2018-02-19T11:57:11.639Z,7.50
2018-02-19T11:59:39.190Z,7.50
2018-02-19T12:02:07.476Z,7.30
2018-02-19T12:04:35.064Z,7.30
2018-02-19T12:07:03.349Z,7.60
2018-02-19T12:09:31.691Z,7.40
2018-02-19T12:11:59.225Z,7.40
2018-02-19T12:14:26.831Z,7.30
2018-02-19T12:16:55.140Z,7.30
2018-02-19T12:19:22.712Z,7.30
2018-02-19T12:21:50.256Z,7.10
2018-02-19T12:24:18.127Z,7.20
2018-02-19T12:26:45.669Z,6.90
2018-02-19T12:29:13.976Z,6.80
2018-02-19T12:31:41.533Z,6.80
2018-02-19T12:34:09.085Z,6.50
2018-02-19T12:36:36.609Z,6.30
2018-02-19T12:39:04.164Z,6.30
2018-02-19T12:41:31.680Z,6.30
2018-02-19T12:43:59.238Z,6.30
2018-02-19T12:46:26.760Z,6.20
2018-02-19T12:48:55.118Z,6.40
2018-02-19T12:51:22.635Z,6.40
2018-02-19T12:53:50.954Z,6.40
2018-02-19T12:56:18.477Z,6.40
2018-02-19T12:58:46.036Z,6.40
2018-02-19T13:01:13.552Z,6.20
2018-02-19T13:03:41.107Z,6.30
2018-02-19T13:06:09.401Z,6.50
2018-02-19T13:08:36.967Z,6.50
2018-02-19T13:11:05.268Z,7.00
2018-02-19T13:13:33.584Z,7.20
2018-02-19T13:16:01.109Z,7.20
2018-02-19T13:18:28.669Z,7.30
2018-02-19T13:20:56.192Z,7.00
2018-02-19T13:23:23.795Z,6.80
2018-02-19T13:25:51.365Z,6.60
2018-02-19T13:28:18.916Z,6.50
2018-02-19T13:30:46.460Z,6.40
2018-02-19T13:33:14.784Z,6.10
2018-02-19T13:35:42.304Z,6.10
2018-02-19T13:38:09.823Z,6.10
2018-02-19T13:40:37.370Z,6.20
2018-02-19T13:43:05.646Z,6.30
2018-02-19T13:45:33.964Z,6.50
2018-02-19T13:48:01.481Z,6.50
2018-02-19T13:50:29.047Z,6.90
2018-02-19T13:52:56.580Z,7.10
2018-02-19T13:55:24.141Z,7.40
2018-02-19T13:57:51.668Z,7.30
2018-02-19T14:00:19.216Z,7.30
2018-02-19T14:02:46.756Z,7.40
2018-02-19T14:05:14.325Z,7.50
2018-02-19T14:07:42.620Z,7.30
2018-02-19T14:10:10.135Z,7.30
2018-02-19T14:12:37.688Z,7.10
2018-02-19T14:15:05.212Z,7.00
2018-02-19T14:17:33.542Z,7.10
2018-02-19T14:20:01.052Z,7.10
2018-02-19T14:22:28.616Z,7.00
2018-02-19T14:24:56.165Z,7.00
2018-02-19T14:27:23.725Z,7.00
2018-02-19T14:29:51.276Z,7.00
2018-02-19T14:32:18.797Z,6.90
2018-02-19T14:34:46.359Z,7.10
2018-02-19T14:37:13.892Z,7.00
2018-02-19T14:39:42.199Z,6.90
2018-02-19T14:42:09.724Z,6.90
2018-02-19T14:44:37.280Z,6.90
2018-02-19T14:47:04.809Z,6.80
2018-02-19T14:49:32.358Z,6.70
2018-02-19T14:51:59.892Z,6.80
2018-02-19T14:54:27.451Z,6.80
2018-02-19T14:56:54.969Z,6.60
2018-02-19T14:59:23.387Z,6.40
2018-02-19T15:01:50.908Z,6.50
2018-02-19T15:04:18.458Z,6.50
2018-02-19T15:06:45.982Z,6.40
2018-02-19T15:09:14.304Z,6.30
2018-02-19T15:11:41.832Z,6.20
2018-02-19T15:14:09.400Z,6.10
2018-02-19T15:16:37.738Z,6.10
2018-02-19T15:19:05.268Z,6.10
2018-02-19T15:21:32.820Z,6.20
2018-02-19T15:24:00.367Z,6.10
2018-02-19T15:26:27.939Z,6.00
2018-02-19T15:28:55.517Z,6.00
2018-02-19T15:31:24.099Z,5.90
2018-02-19T15:33:51.655Z,5.90
2018-02-19T15:36:19.175Z,5.80
2018-02-19T15:38:46.723Z,5.80
2018-02-19T15:41:14.252Z,5.80
2018-02-19T15:43:41.831Z,5.80
2018-02-19T15:46:09.340Z,5.70
2018-02-19T15:48:36.905Z,5.70
2018-02-19T15:51:04.476Z,5.60
2018-02-19T15:53:32.031Z,5.60
2018-02-19T15:55:59.553Z,5.50
2018-02-19T15:58:27.108Z,5.40
2018-02-19T16:00:54.629Z,5.40
2018-02-19T16:03:22.177Z,5.40
2018-02-19T16:05:49.705Z,5.20
2018-02-19T16:08:17.257Z,5.10
2018-02-19T16:10:45.544Z,5.20
2018-02-19T16:13:13.903Z,5.10
2018-02-19T16:15:41.422Z,5.10
2018-02-19T16:18:09.032Z,5.10
2018-02-19T16:20:36.557Z,5.00
2018-02-19T16:23:04.867Z,4.80
2018-02-19T16:25:32.536Z,4.80
2018-02-19T16:28:00.064Z,4.70
2018-02-19T16:30:27.604Z,4.70
2018-02-19T16:32:55.119Z,4.70
2018-02-19T16:35:22.680Z,4.70
2018-02-19T16:37:50.222Z,4.70
2018-02-19T16:40:17.776Z,4.70
2018-02-19T16:42:45.296Z,4.70
2018-02-19T16:45:12.904Z,4.70
2018-02-19T16:47:40.392Z,4.70
2018-02-19T16:50:07.948Z,4.60
2018-02-19T16:52:36.231Z,4.50
2018-02-19T16:55:03.782Z,4.50
2018-02-19T16:57:31.308Z,4.50
2018-02-19T16:59:58.861Z,4.40
2018-02-19T17:02:26.388Z,4.40
2018-02-19T17:04:53.936Z,4.30
2018-02-19T17:07:21.447Z,4.20
2018-02-19T17:09:49.792Z,4.10
2018-02-19T17:12:17.312Z,4.10
2018-02-19T17:14:44.873Z,4.20
2018-02-19T17:17:12.399Z,4.20
2018-02-19T17:19:39.962Z,4.20
2018-02-19T17:22:07.480Z,4.20
2018-02-19T17:24:35.050Z,4.20
2018-02-19T17:27:02.610Z,4.20
2018-02-19T17:29:30.119Z,4.20
2018-02-19T17:31:58.439Z,4.20
2018-02-19T17:34:25.967Z,4.20
2018-02-19T17:36:53.524Z,4.20
2018-02-19T17:39:21.088Z,4.10
2018-02-19T17:41:48.622Z,4.10
2018-02-19T17:44:16.197Z,4.10
2018-02-19T17:46:43.764Z,4.00
2018-02-19T17:49:11.279Z,3.90
2018-02-19T17:51:38.833Z,3.80
2018-02-19T17:54:06.384Z,3.70
2018-02-19T17:56:33.928Z,3.60
2018-02-19T17:59:01.449Z,3.60
2018-02-19T18:01:29.015Z,3.50
2018-02-19T18:03:56.554Z,3.40
2018-02-19T18:06:24.871Z,3.40
2018-02-19T18:08:52.430Z,3.30
2018-02-19T18:11:19.948Z,3.30
2018-02-19T18:13:49.432Z,3.30
2018-02-19T18:16:16.992Z,3.30
2018-02-19T18:18:44.526Z,3.40
2018-02-19T18:21:12.077Z,3.40
2018-02-19T18:23:39.596Z,3.30
2018-02-19T18:26:07.923Z,3.50
2018-02-19T18:28:35.479Z,3.50
2018-02-19T18:31:03.028Z,3.50
2018-02-19T18:33:30.546Z,3.40
2018-02-19T18:35:58.092Z,3.40
2018-02-19T18:38:25.620Z,3.40
2018-02-19T18:40:53.178Z,3.40
2018-02-19T18:43:20.717Z,3.30
2018-02-19T18:45:48.276Z,3.30
2018-02-19T18:48:16.589Z,3.20
2018-02-19T18:50:44.152Z,3.20
2018-02-19T18:53:11.672Z,3.20
2018-02-19T18:55:39.276Z,3.20
2018-02-19T18:58:07.573Z,3.30
2018-02-19T19:00:35.127Z,3.30
2018-02-19T19:03:02.644Z,3.30
2018-02-19T19:05:30.194Z,3.30
2018-02-19T19:08:09.653Z,3.30
2018-02-19T19:10:43.013Z,3.30
2018-02-19T19:13:10.574Z,3.30
2018-02-19T19:15:38.108Z,3.30
2018-02-19T19:18:05.664Z,3.20
2018-02-19T19:20:33.970Z,3.10
2018-02-19T19:23:01.568Z,3.10
2018-02-19T19:25:29.120Z,3.10
2018-02-19T19:27:56.636Z,3.10
2018-02-19T19:30:24.238Z,3.10
2018-02-19T19:32:52.536Z,3.00
2018-02-19T19:35:20.080Z,3.00
2018-02-19T19:37:47.601Z,3.00
2018-02-19T19:40:15.134Z,2.90
2018-02-19T19:42:43.467Z,3.00
2018-02-19T19:45:11.021Z,3.00
2018-02-19T19:47:38.543Z,3.00
2018-02-19T19:50:06.099Z,3.00
2018-02-19T19:52:33.637Z,3.00
2018-02-19T19:55:01.961Z,2.90
2018-02-19T19:57:29.488Z,2.90
2018-02-19T19:59:57.803Z,2.90
2018-02-19T20:02:25.337Z,2.90
2018-02-19T20:04:52.888Z,2.90
2018-02-19T20:07:20.448Z,2.90
2018-02-19T20:09:47.963Z,2.90
2018-02-19T20:12:16.288Z,2.80
2018-02-19T20:14:43.961Z,2.80
2018-02-19T20:17:11.516Z,2.70
2018-02-19T20:19:39.041Z,2.70
2018-02-19T20:22:06.618Z,2.70
2018-02-19T20:24:34.136Z,2.60
2018-02-19T20:27:01.656Z,2.60
2018-02-19T20:29:29.223Z,2.50
2018-02-19T20:31:56.776Z,2.50
2018-02-19T20:34:24.331Z,2.50
2018-02-19T20:36:51.848Z,2.40
2018-02-19T20:39:19.387Z,2.30
2018-02-19T20:41:46.910Z,2.30
2018-02-19T20:44:14.462Z,2.20
2018-02-19T20:46:42.005Z,2.20
2018-02-19T20:49:09.556Z,2.20
2018-02-19T20:51:37.085Z,2.20
2018-02-19T20:54:04.639Z,2.30
2018-02-19T20:56:32.163Z,2.30
2018-02-19T20:58:59.705Z,2.40
2018-02-19T21:01:27.224Z,2.40
2018-02-19T21:03:54.768Z,2.40
2018-02-19T21:06:23.045Z,2.40
2018-02-19T21:08:51.377Z,2.40
2018-02-19T21:11:18.937Z,2.40
2018-02-19T21:13:46.447Z,2.30
2018-02-19T21:16:14.012Z,2.30
2018-02-19T21:18:41.541Z,2.30
2018-02-19T21:21:09.116Z,2.40
2018-02-19T21:23:37.396Z,2.20
2018-02-19T21:26:05.708Z,2.10
2018-02-19T21:28:33.262Z,2.10
2018-02-19T21:31:01.537Z,2.20
2018-02-19T21:33:29.093Z,2.20
2018-02-19T21:35:56.614Z,2.20
2018-02-19T21:38:24.211Z,2.10
2018-02-19T21:40:51.731Z,2.10
2018-02-19T21:43:19.280Z,2.00
2018-02-19T21:45:46.800Z,2.00
2018-02-19T21:48:14.347Z,2.00
2018-02-19T21:50:41.877Z,2.00
2018-02-19T21:53:09.436Z,1.90
2018-02-19T21:55:36.966Z,1.90
2018-02-19T21:58:05.280Z,1.80
2018-02-19T22:00:32.807Z,1.80
2018-02-19T22:03:00.358Z,1.60
2018-02-19T22:05:27.872Z,1.50
2018-02-19T22:07:55.425Z,1.50
2018-02-19T22:10:23.003Z,1.40
2018-02-19T22:12:50.516Z,1.40
2018-02-19T22:15:18.073Z,1.50
2018-02-19T22:17:45.607Z,1.50
2018-02-19T22:20:13.169Z,1.40
2018-02-19T22:22:40.679Z,1.40
2018-02-19T22:25:09.008Z,1.40
2018-02-19T22:27:36.526Z,1.40
2018-02-19T22:30:04.072Z,1.40
2018-02-19T22:32:31.625Z,1.40
2018-02-19T22:34:59.179Z,1.40
2018-02-19T22:37:26.737Z,1.30
2018-02-19T22:39:55.015Z,1.10
2018-02-19T22:42:22.572Z,1.10
2018-02-19T22:44:50.096Z,1.00
2018-02-19T22:47:17.653Z,0.90
2018-02-19T22:49:45.203Z,0.80
2018-02-19T22:52:12.728Z,0.70
2018-02-19T22:54:40.276Z,0.60
2018-02-19T22:57:07.791Z,0.60
2018-02-19T22:59:35.340Z,0.50
2018-02-19T23:02:03.432Z,0.40
2018-02-19T23:04:30.988Z,0.30
2018-02-19T23:06:58.505Z,0.30
2018-02-19T23:09:26.060Z,0.20
2018-02-19T23:11:53.579Z,0.10
2018-02-19T23:14:21.896Z,-0.10
2018-02-19T23:16:49.416Z,-0.10
2018-02-19T23:19:17.001Z,-0.10
2018-02-19T23:21:45.299Z,-0.20
2018-02-19T23:24:12.886Z,-0.20
2018-02-19T23:26:40.404Z,-0.30
2018-02-19T23:29:07.928Z,-0.30
2018-02-19T23:31:35.485Z,-0.20
2018-02-19T23:34:03.806Z,-0.30
2018-02-19T23:36:31.332Z,-0.30
2018-02-19T23:38:59.684Z,-0.30
2018-02-19T23:41:27.211Z,-0.30
2018-02-19T23:43:55.536Z,-0.40
2018-02-19T23:46:23.052Z,-0.40
2018-02-19T23:48:50.610Z,-0.40
2018-02-19T23:51:18.143Z,-0.40
2018-02-19T23:53:45.705Z,-0.50
2018-02-19T23:56:13.219Z,-0.50
2018-02-19T23:58:40.769Z,-0.50
